Time;durP1;ratioP1;P1;durP2;ratioP2;P2;SDS_P1;SDS_P2;PMS_P1;PMS_P2;Temp;Humidity;BMP_temperature;BMP_pressure;BME280_temperature;BME280_humidity;BME280_pressure;Samples;Min_cycle;Max_cycle;Signal;HPM_P1;HPM_P2
2022/01/10 00:01:29;;;;;;;5.88;3.55;;;16.20;45.00;;;;;;5053941;28;20100;-40
2022/01/10 00:03:56;;;;;;;7.60;4.10;;;16.20;45.00;;;;;;5053299;28;20460;-40
2022/01/10 00:06:22;;;;;;;7.03;4.07;;;16.20;44.80;;;;;;5035087;28;20013;-40
2022/01/10 00:08:48;;;;;;;6.93;4.07;;;16.20;44.80;;;;;;5052643;28;20023;-40
2022/01/10 00:11:15;;;;;;;7.93;4.22;;;16.20;44.70;;;;;;5052714;28;20387;-42
2022/01/10 00:13:41;;;;;;;6.47;4.10;;;16.30;44.60;;;;;;5052971;28;20020;-40
2022/01/10 00:16:08;;;;;;;7.63;4.20;;;16.30;44.50;;;;;;5035261;28;20383;-40
2022/01/10 00:18:35;;;;;;;6.88;4.00;;;16.30;44.40;;;;;;5053098;28;20048;-40
2022/01/10 00:21:01;;;;;;;6.35;3.60;;;16.40;44.40;;;;;;5053004;28;20053;-40
2022/01/10 00:23:28;;;;;;;6.07;3.95;;;16.40;44.30;;;;;;5035161;28;20021;-40
2022/01/10 00:25:54;;;;;;;5.88;3.95;;;16.40;44.20;;;;;;5052993;28;20020;-42
2022/01/10 00:28:22;;;;;;;7.82;4.20;;;16.50;44.20;;;;;;5052844;28;20096;-42
2022/01/10 00:30:47;;;;;;;6.20;4.05;;;16.40;44.10;;;;;;5052782;28;20021;-42
2022/01/10 00:33:13;;;;;;;7.32;4.00;;;16.50;44.20;;;;;;5052821;28;20510;-42
2022/01/10 00:35:40;;;;;;;5.63;3.88;;;16.40;44.10;;;;;;5052732;28;20032;-42
2022/01/10 00:38:06;;;;;;;6.88;4.53;;;16.40;44.10;;;;;;5052973;28;20021;-42
2022/01/10 00:40:32;;;;;;;6.43;4.20;;;16.40;44.00;;;;;;5018194;28;20021;-45
2022/01/10 00:42:59;;;;;;;6.30;4.10;;;16.50;44.00;;;;;;5053859;28;20033;-42
2022/01/10 00:45:27;;;;;;;5.85;3.95;;;16.50;43.90;;;;;;5055659;28;20041;-43
2022/01/10 00:47:57;;;;;;;6.05;3.90;;;16.50;43.90;;;;;;5036784;28;20021;-42
2022/01/10 00:50:27;;;;;;;7.22;3.95;;;16.50;43.80;;;;;;5054196;28;20063;-43
2022/01/10 00:52:54;;;;;;;6.55;4.00;;;16.50;43.70;;;;;;5054804;28;20021;-42
2022/01/10 00:55:19;;;;;;;5.88;3.80;;;16.60;43.70;;;;;;5054651;28;20037;-44
2022/01/10 00:57:46;;;;;;;6.63;4.00;;;16.60;43.60;;;;;;5054908;28;20024;-43
2022/01/10 01:00:13;;;;;;;7.70;4.05;;;16.60;43.60;;;;;;5054434;28;20021;-43
2022/01/10 01:02:39;;;;;;;7.57;3.88;;;16.60;43.60;;;;;;5054885;28;20083;-43
2022/01/10 01:05:07;;;;;;;6.35;4.10;;;16.60;43.60;;;;;;5037332;28;20392;-42
2022/01/10 01:07:33;;;;;;;6.18;4.00;;;16.60;43.50;;;;;;5055655;28;20009;-45
2022/01/10 01:10:44;;;;;;;6.22;4.10;;;16.70;43.40;;;;;;5054940;28;20013;-44
2022/01/10 01:13:52;;;;;;;6.53;4.35;;;16.70;43.40;;;;;;5054846;28;20048;-42
2022/01/10 01:24:05;;;;;;;7.45;4.22;;;16.70;43.20;;;;;;5058605;28;20024;-42
2022/01/10 01:26:33;;;;;;;6.68;3.97;;;16.70;43.20;;;;;;5058784;28;20104;-36
2022/01/10 01:29:00;;;;;;;7.55;4.10;;;16.70;43.20;;;;;;5058471;28;20020;-37
2022/01/10 01:31:26;;;;;;;7.50;4.38;;;16.80;43.20;;;;;;5058591;28;20017;-36
2022/01/10 01:33:52;;;;;;;7.10;4.25;;;16.70;43.20;;;;;;5058518;28;20037;-36
2022/01/10 01:36:23;;;;;;;6.88;4.18;;;16.70;43.20;;;;;;5058434;28;20052;-36
2022/01/10 01:38:49;;;;;;;5.90;4.07;;;16.70;43.10;;;;;;5058441;28;20141;-36
2022/01/10 01:41:36;;;;;;;7.93;4.43;;;16.70;43.00;;;;;;5059103;28;20088;-36
2022/01/10 01:44:02;;;;;;;6.75;4.35;;;16.80;43.60;;;;;;5058628;28;20097;-36
2022/01/10 01:46:29;;;;;;;5.60;4.07;;;16.80;43.00;;;;;;5058687;28;20028;-36
2022/01/10 01:48:55;;;;;;;7.00;4.40;;;16.80;43.00;;;;;;5058252;28;20017;-38
2022/01/10 01:51:20;;;;;;;6.25;4.25;;;16.80;43.00;;;;;;5058640;28;20376;-36
2022/01/10 01:53:49;;;;;;;7.78;4.43;;;16.80;43.00;;;;;;5057779;28;20545;-36
2022/01/10 01:56:15;;;;;;;6.25;4.10;;;16.70;43.10;;;;;;5058266;28;20125;-36
2022/01/10 01:58:44;;;;;;;7.35;4.40;;;16.80;43.10;;;;;;5057447;28;20052;-37
2022/01/10 02:01:10;;;;;;;6.38;4.32;;;16.70;43.10;;;;;;5057943;28;20098;-36
2022/01/10 02:03:39;;;;;;;7.22;4.55;;;16.70;43.30;;;;;;5056996;28;20015;-36
2022/01/10 02:06:05;;;;;;;5.88;4.15;;;16.60;43.30;;;;;;5058008;28;20036;-36
2022/01/10 02:08:33;;;;;;;6.90;4.40;;;16.60;43.40;;;;;;5057824;28;20017;-37
2022/01/10 02:10:59;;;;;;;8.10;4.25;;;16.50;43.50;;;;;;5057779;28;20029;-37
2022/01/10 02:13:26;;;;;;;9.07;4.80;;;16.50;43.50;;;;;;5058209;28;20045;-37
2022/01/10 02:16:04;;;;;;;7.60;4.30;;;16.50;43.60;;;;;;5057786;28;20013;-36
2022/01/10 02:18:32;;;;;;;7.30;4.50;;;16.40;43.60;;;;;;5058722;28;20099;-36
2022/01/10 02:21:00;;;;;;;8.10;4.82;;;16.40;43.80;;;;;;5057316;28;20067;-36
2022/01/10 02:23:27;;;;;;;7.32;4.53;;;16.40;43.90;;;;;;5057758;28;20014;-37
2022/01/10 02:25:53;;;;;;;8.00;4.45;;;16.30;43.90;;;;;;5057338;28;20494;-39
2022/01/10 02:28:19;;;;;;;6.68;4.32;;;16.20;44.00;;;;;;5057904;28;20021;-39
2022/01/10 02:30:44;;;;;;;6.95;4.20;;;16.20;44.10;;;;;;5039881;28;20085;-38
2022/01/10 02:33:11;;;;;;;6.18;4.20;;;16.20;44.10;;;;;;5057542;28;20100;-39
2022/01/10 02:35:54;;;;;;;7.43;4.70;;;16.10;44.30;;;;;;5056636;28;20039;-38
2022/01/10 02:38:22;;;;;;;8.75;4.38;;;16.10;44.40;;;;;;5055185;28;20033;-39
2022/01/10 02:40:50;;;;;;;8.45;4.65;;;16.00;44.50;;;;;;5054947;28;20021;-38
2022/01/10 02:43:18;;;;;;;6.13;4.63;;;16.00;45.20;;;;;;5055323;28;20005;-39
2022/01/10 02:45:45;;;;;;;7.72;4.50;;;16.00;44.70;;;;;;5056566;28;20013;-40
2022/01/10 02:48:12;;;;;;;7.43;4.47;;;15.90;44.80;;;;;;5055080;28;20010;-41
2022/01/10 02:50:38;;;;;;;7.18;4.30;;;15.90;44.90;;;;;;5038701;28;20036;-41
2022/01/10 02:53:05;;;;;;;7.60;4.55;;;15.80;44.90;;;;;;5057435;28;20045;-40
2022/01/10 02:55:32;;;;;;;7.63;4.57;;;15.80;45.00;;;;;;5054439;28;20044;-40
2022/01/10 02:57:58;;;;;;;7.18;4.80;;;15.80;45.20;;;;;;5055279;28;20160;-40
2022/01/10 03:00:25;;;;;;;6.95;4.20;;;15.70;45.30;;;;;;5055363;28;20032;-40
2022/01/10 03:02:53;;;;;;;7.82;4.38;;;15.70;45.30;;;;;;5055221;28;20009;-40
2022/01/10 03:05:19;;;;;;;7.03;5.03;;;15.60;45.40;;;;;;5038841;28;20043;-41
2022/01/10 03:07:46;;;;;;;7.25;4.60;;;15.60;45.50;;;;;;5057144;28;20077;-41
2022/01/10 03:10:12;;;;;;;7.45;4.55;;;15.50;45.50;;;;;;5057708;28;20020;-47
2022/01/10 03:12:38;;;;;;;7.20;4.30;;;15.50;45.60;;;;;;5058523;28;20495;-42
2022/01/10 03:15:07;;;;;;;6.75;4.38;;;15.50;45.60;;;;;;5058583;28;20498;-41
2022/01/10 03:17:33;;;;;;;7.45;4.90;;;15.50;45.70;;;;;;5058550;28;20383;-43
2022/01/10 03:19:59;;;;;;;7.93;4.55;;;15.50;45.70;;;;;;5039700;28;20025;-42
2022/01/10 03:22:26;;;;;;;8.00;4.40;;;15.50;45.80;;;;;;5056535;28;20479;-43
2022/01/10 03:24:55;;;;;;;6.68;4.45;;;15.40;46.00;;;;;;5039660;28;20025;-41
2022/01/10 03:27:22;;;;;;;7.13;4.82;;;15.30;46.00;;;;;;5058181;28;20082;-43
2022/01/10 03:29:48;;;;;;;8.45;4.72;;;15.30;46.10;;;;;;5057746;28;20033;-42
2022/01/10 03:32:14;;;;;;;6.95;4.18;;;15.40;46.00;;;;;;5058475;28;20361;-43
2022/01/10 03:34:40;;;;;;;7.28;4.80;;;15.40;46.10;;;;;;5040929;28;20025;-44
2022/01/10 03:37:06;;;;;;;9.30;4.97;;;15.30;46.00;;;;;;5057315;28;20376;-44
2022/01/10 03:39:33;;;;;;;7.00;4.72;;;15.30;46.10;;;;;;5040168;28;20053;-41
2022/01/10 03:41:59;;;;;;;9.13;4.90;;;15.20;46.20;;;;;;5057254;28;20092;-44
2022/01/10 03:44:25;;;;;;;7.10;4.43;;;15.20;46.30;;;;;;5039446;28;20095;-42
2022/01/10 03:46:52;;;;;;;5.95;4.55;;;15.20;46.40;;;;;;5055896;28;20476;-36
2022/01/10 03:49:18;;;;;;;7.93;4.82;;;15.20;46.40;;;;;;5055208;28;20104;-36
2022/01/10 03:51:44;;;;;;;7.55;4.78;;;15.10;46.50;;;;;;5055404;28;20017;-36
2022/01/10 03:54:10;;;;;;;9.10;5.13;;;15.10;46.50;;;;;;5054965;28;20021;-37
2022/01/10 03:56:36;;;;;;;9.63;4.93;;;15.10;46.60;;;;;;5036991;28;20071;-36
2022/01/10 03:59:04;;;;;;;7.63;4.72;;;15.00;46.60;;;;;;5054763;28;20100;-37
2022/01/10 04:01:30;;;;;;;8.45;4.82;;;15.00;46.70;;;;;;5056834;28;20009;-36
2022/01/10 04:03:56;;;;;;;7.30;4.35;;;15.00;46.80;;;;;;5056766;28;20375;-38
2022/01/10 04:06:22;;;;;;;6.45;4.40;;;15.00;46.80;;;;;;5056626;28;20044;-37
2022/01/10 04:08:48;;;;;;;7.68;4.68;;;15.00;46.80;;;;;;5054647;28;20020;-36
2022/01/10 04:11:15;;;;;;;5.75;4.35;;;15.00;46.80;;;;;;5053479;28;20013;-36
2022/01/10 04:13:41;;;;;;;6.88;4.60;;;15.00;46.80;;;;;;5053631;28;20021;-36
2022/01/10 04:16:08;;;;;;;7.20;4.68;;;14.90;46.80;;;;;;5053698;28;20036;-36
2022/01/10 04:18:34;;;;;;;6.85;4.53;;;15.00;46.70;;;;;;5053245;28;20498;-36
2022/01/10 04:20:59;;;;;;;6.85;4.78;;;15.00;46.50;;;;;;5052883;28;20029;-36
2022/01/10 04:23:26;;;;;;;6.55;4.80;;;15.20;46.40;;;;;;5052578;28;20083;-36
2022/01/10 04:25:52;;;;;;;7.05;4.47;;;15.20;46.20;;;;;;5052929;28;20013;-36
2022/01/10 04:28:18;;;;;;;7.75;4.55;;;15.30;46.10;;;;;;5053330;28;20029;-36
2022/01/10 04:30:44;;;;;;;8.95;4.78;;;15.40;45.90;;;;;;5053863;28;20025;-37
2022/01/10 04:33:16;;;;;;;7.60;4.72;;;15.40;45.60;;;;;;5053895;28;20020;-36
2022/01/10 04:35:42;;;;;;;8.13;4.63;;;15.50;45.40;;;;;;5053509;28;20021;-36
2022/01/10 04:38:09;;;;;;;6.55;4.47;;;15.70;45.20;;;;;;5035513;28;20368;-36
2022/01/10 04:40:35;;;;;;;8.70;4.95;;;15.70;45.00;;;;;;5052906;28;20032;-36
2022/01/10 04:43:01;;;;;;;7.85;4.40;;;15.80;44.80;;;;;;5034903;28;20067;-36
2022/01/10 04:45:27;;;;;;;7.75;4.90;;;15.90;44.60;;;;;;5035244;28;20475;-36
2022/01/10 04:47:53;;;;;;;7.45;4.78;;;15.90;44.50;;;;;;5034955;28;20032;-36
2022/01/10 04:52:48;;;;;;;7.95;4.60;;;16.10;44.00;;;;;;5052793;28;20032;-37
2022/01/10 04:55:14;;;;;;;6.80;4.50;;;16.20;43.90;;;;;;5036581;28;20058;-37
2022/01/10 04:57:41;;;;;;;5.93;4.32;;;16.20;43.70;;;;;;5056481;28;20028;-36
2022/01/10 05:00:08;;;;;;;7.70;4.40;;;16.30;43.60;;;;;;5039357;28;20056;-37
2022/01/10 05:02:35;;;;;;;7.10;4.55;;;16.40;43.40;;;;;;5058771;28;20107;-36
2022/01/10 05:05:02;;;;;;;8.18;4.72;;;16.50;43.20;;;;;;5058899;28;20128;-37
2022/01/10 05:07:28;;;;;;;6.85;4.55;;;16.60;43.00;;;;;;5059071;28;20379;-37
2022/01/10 05:09:57;;;;;;;6.75;4.40;;;16.70;42.70;;;;;;5060123;28;20100;-37
2022/01/10 05:12:24;;;;;;;6.25;4.32;;;16.70;42.50;;;;;;5060163;28;20487;-37
2022/01/10 05:14:50;;;;;;;7.70;5.00;;;16.80;42.30;;;;;;5059102;28;20476;-37
2022/01/10 05:17:18;;;;;;;7.70;4.40;;;16.90;42.20;;;;;;5056255;28;20021;-36
2022/01/10 05:19:45;;;;;;;6.30;4.30;;;17.00;42.00;;;;;;5056010;28;20033;-36
2022/01/10 05:22:11;;;;;;;7.70;4.28;;;17.00;41.90;;;;;;5055628;28;20090;-36
2022/01/10 05:24:37;;;;;;;7.75;4.70;;;17.10;41.80;;;;;;5055691;28;20109;-36
2022/01/10 05:27:05;;;;;;;7.82;4.55;;;17.10;41.60;;;;;;5055587;28;20032;-38
2022/01/10 05:29:31;;;;;;;7.07;4.72;;;17.20;41.50;;;;;;5055831;28;20048;-39
2022/01/10 05:31:57;;;;;;;6.80;4.03;;;17.30;41.20;;;;;;5056335;28;20016;-39
2022/01/10 05:34:25;;;;;;;6.25;4.30;;;17.40;41.10;;;;;;5056993;28;20025;-39
2022/01/10 05:36:51;;;;;;;5.30;3.92;;;17.40;41.00;;;;;;5056737;28;20544;-38
2022/01/10 05:39:17;;;;;;;6.63;3.97;;;17.50;40.80;;;;;;5057813;28;20013;-39
2022/01/10 05:41:44;;;;;;;6.80;4.25;;;17.60;40.70;;;;;;5057882;28;20475;-39
2022/01/10 05:44:10;;;;;;;6.53;4.57;;;17.70;40.60;;;;;;5057316;28;20017;-39
2022/01/10 05:46:42;;;;;;;7.10;4.28;;;17.70;40.40;;;;;;5055449;28;20436;-39
2022/01/10 05:49:08;;;;;;;6.90;4.25;;;17.80;40.40;;;;;;5038194;28;20025;-40
2022/01/10 05:51:37;;;;;;;6.60;4.15;;;17.80;40.20;;;;;;5055528;28;20009;-40
2022/01/10 05:54:06;;;;;;;7.82;4.40;;;17.90;40.10;;;;;;5055253;28;20463;-40
2022/01/10 05:56:32;;;;;;;6.07;4.15;;;17.90;40.00;;;;;;5054997;28;20110;-40
2022/01/10 05:58:59;;;;;;;6.53;4.30;;;18.00;39.90;;;;;;5037507;28;20406;-40
2022/01/10 06:01:25;;;;;;;6.55;4.25;;;18.10;39.70;;;;;;5055391;28;20100;-40
2022/01/10 06:03:51;;;;;;;7.05;4.22;;;18.10;39.60;;;;;;5055556;28;20090;-40
2022/01/10 06:06:17;;;;;;;7.28;4.35;;;18.20;39.50;;;;;;5054924;28;20013;-41
2022/01/10 06:08:44;;;;;;;6.30;4.10;;;18.20;39.40;;;;;;5055577;28;20056;-41
2022/01/10 06:11:10;;;;;;;6.30;4.28;;;18.30;39.30;;;;;;5037467;28;20052;-41
2022/01/10 06:13:36;;;;;;;5.13;4.10;;;18.30;39.10;;;;;;5037710;28;20033;-41
2022/01/10 06:16:02;;;;;;;7.18;4.15;;;18.40;39.10;;;;;;5037500;28;20016;-48
2022/01/10 06:18:28;;;;;;;6.53;4.15;;;18.40;39.00;;;;;;5037256;28;20025;-42
2022/01/10 06:20:54;;;;;;;6.28;4.30;;;18.50;38.90;;;;;;5055010;28;20021;-41
2022/01/10 06:23:20;;;;;;;7.03;4.20;;;18.60;38.80;;;;;;5055155;28;20024;-41
2022/01/10 06:25:46;;;;;;;6.15;4.05;;;18.60;38.70;;;;;;5055102;28;20013;-41
2022/01/10 06:28:11;;;;;;;6.22;4.18;;;18.60;38.60;;;;;;5055585;28;20581;-41
2022/01/10 06:30:38;;;;;;;6.65;4.32;;;18.70;38.50;;;;;;5036952;28;20112;-41
2022/01/10 06:33:04;;;;;;;6.05;4.20;;;18.70;38.30;;;;;;5054783;28;20447;-41
2022/01/10 06:35:30;;;;;;;6.45;4.10;;;18.80;38.30;;;;;;5054811;28;20508;-43
2022/01/10 06:37:56;;;;;;;6.18;4.00;;;18.80;38.20;;;;;;5019802;28;20017;-41
2022/01/10 06:40:22;;;;;;;7.10;4.25;;;18.80;38.20;;;;;;5053847;28;20094;-41
2022/01/10 06:42:49;;;;;;;5.78;4.20;;;18.90;38.10;;;;;;5054874;28;20075;-41
2022/01/10 06:45:14;;;;;;;5.90;3.85;;;19.00;38.00;;;;;;5037374;28;20013;-42
2022/01/10 06:47:40;;;;;;;5.72;4.05;;;19.00;37.90;;;;;;5058043;28;20471;-38
2022/01/10 06:50:07;;;;;;;7.30;4.47;;;19.00;37.80;;;;;;5058522;28;20063;-37
2022/01/10 06:52:32;;;;;;;5.85;4.38;;;19.10;37.80;;;;;;5058452;28;20482;-37
2022/01/10 06:54:58;;;;;;;6.47;4.30;;;19.10;37.60;;;;;;5040362;28;20053;-38
2022/01/10 06:57:24;;;;;;;6.15;4.10;;;19.20;37.50;;;;;;5057287;28;20013;-40
2022/01/10 06:59:51;;;;;;;7.75;4.68;;;19.20;37.40;;;;;;5057351;28;20021;-37
2022/01/10 07:02:17;;;;;;;6.57;4.38;;;19.30;37.40;;;;;;5056540;28;20092;-38
2022/01/10 07:04:44;;;;;;;5.90;4.05;;;19.30;37.30;;;;;;5055870;28;20013;-37
2022/01/10 07:07:14;;;;;;;6.03;3.83;;;19.30;37.30;;;;;;5036723;28;20024;-36
2022/01/10 07:09:41;;;;;;;6.60;4.20;;;19.30;37.20;;;;;;5054258;28;20009;-37
2022/01/10 07:12:07;;;;;;;6.50;4.05;;;19.30;37.20;;;;;;5036095;28;20464;-36
2022/01/10 07:14:35;;;;;;;6.43;4.30;;;19.30;37.20;;;;;;5036646;28;20025;-35
2022/01/10 07:17:00;;;;;;;5.90;4.07;;;19.30;37.20;;;;;;5051777;28;20013;-35
2022/01/10 07:19:27;;;;;;;7.15;4.20;;;19.30;37.20;;;;;;5052295;28;20025;-39
2022/01/10 07:21:54;;;;;;;6.28;3.88;;;19.30;37.20;;;;;;5033817;28;20084;-37
2022/01/10 07:24:22;;;;;;;7.30;4.30;;;19.30;37.10;;;;;;5051848;28;20165;-35
2022/01/10 07:26:49;;;;;;;11.73;4.40;;;19.30;37.40;;;;;;5052440;28;20092;-36
2022/01/10 07:29:15;;;;;;;10.32;4.63;;;19.30;38.40;;;;;;5052683;28;20024;-35
2022/01/10 07:31:41;;;;;;;18.38;4.80;;;19.40;39.50;;;;;;5035281;28;20013;-35
2022/01/10 07:34:07;;;;;;;17.58;5.35;;;19.40;39.60;;;;;;5034344;28;20124;-35
2022/01/10 07:36:35;;;;;;;11.52;6.50;;;19.20;39.50;;;;;;5019474;28;20019;-35
2022/01/10 07:39:03;;;;;;;14.23;7.45;;;16.70;37.50;;;;;;5035288;28;20014;-36
2022/01/10 07:41:29;;;;;;;10.82;7.32;;;15.40;40.80;;;;;;5035185;28;20033;-35
2022/01/10 07:43:56;;;;;;;12.35;6.97;;;15.00;42.20;;;;;;5035197;28;20028;-35
2022/01/10 07:46:22;;;;;;;12.60;7.28;;;15.60;41.20;;;;;;5035645;28;20460;-35
2022/01/10 07:48:49;;;;;;;10.50;7.05;;;16.10;39.50;;;;;;5053543;28;20537;-35
2022/01/10 07:51:15;;;;;;;9.57;6.85;;;16.50;38.40;;;;;;5053745;28;20408;-35
2022/01/10 07:53:41;;;;;;;10.63;7.63;;;16.60;37.50;;;;;;5054186;28;20036;-35
2022/01/10 07:56:11;;;;;;;9.93;7.13;;;16.60;36.80;;;;;;5016431;28;20473;-36
2022/01/10 07:58:37;;;;;;;10.05;6.75;;;16.00;37.00;;;;;;5013500;28;20044;-35
2022/01/10 08:01:04;;;;;;;10.77;6.80;;;16.00;37.20;;;;;;5013450;28;20025;-35
2022/01/10 08:03:31;;;;;;;11.60;6.93;;;16.30;36.60;;;;;;5012324;28;20477;-36
2022/01/10 08:05:57;;;;;;;11.75;6.63;;;16.50;36.40;;;;;;5013876;28;20102;-36
2022/01/10 08:08:23;;;;;;;10.60;6.80;;;16.60;35.90;;;;;;5013436;28;20014;-36
2022/01/10 08:10:49;;;;;;;11.43;7.05;;;16.70;35.80;;;;;;5012255;28;20022;-35
2022/01/10 08:13:15;;;;;;;8.77;6.70;;;16.70;35.70;;;;;;5010526;28;20018;-36
2022/01/10 08:15:41;;;;;;;12.57;7.13;;;16.50;36.10;;;;;;5012299;28;20025;-35
2022/01/10 08:18:07;;;;;;;15.18;6.90;;;16.40;36.30;;;;;;5011424;28;20033;-35
2022/01/10 08:20:33;;;;;;;15.50;6.82;;;16.30;36.70;;;;;;5012530;28;20029;-35
2022/01/10 08:22:59;;;;;;;14.00;6.80;;;16.60;37.60;;;;;;5011691;28;20054;-35
2022/01/10 08:25:25;;;;;;;11.05;6.05;;;17.00;36.80;;;;;;5013261;28;20050;-36
2022/01/10 08:27:53;;;;;;;15.82;6.00;;;17.20;36.20;;;;;;5013387;28;20089;-35
2022/01/10 08:30:19;;;;;;;14.27;6.20;;;17.20;36.40;;;;;;5016336;28;20033;-35
2022/01/10 08:32:49;;;;;;;12.27;6.97;;;17.20;36.20;;;;;;5016167;28;20025;-35
2022/01/10 08:35:18;;;;;;;9.00;6.50;;;17.10;36.10;;;;;;5017383;28;20018;-37
2022/01/10 08:37:44;;;;;;;9.82;6.50;;;16.90;36.50;;;;;;5016290;28;20474;-35
2022/01/10 08:40:13;;;;;;;8.82;6.50;;;16.90;36.50;;;;;;5016970;28;20053;-35
2022/01/10 08:42:39;;;;;;;8.13;6.28;;;16.90;36.30;;;;;;5017059;28;20014;-34
2022/01/10 08:45:08;;;;;;;9.32;6.47;;;17.10;35.70;;;;;;5016368;28;20523;-35
2022/01/10 08:47:34;;;;;;;7.43;6.05;;;17.20;35.30;;;;;;5015194;28;20101;-35
2022/01/10 08:50:00;;;;;;;11.35;6.30;;;17.30;34.80;;;;;;5016374;28;20107;-35
2022/01/10 08:52:25;;;;;;;9.50;6.28;;;17.40;34.80;;;;;;5016168;28;20461;-35
2022/01/10 08:54:51;;;;;;;9.55;6.20;;;17.40;35.10;;;;;;5028404;28;20045;-35
2022/01/10 08:57:17;;;;;;;8.20;6.05;;;17.20;35.10;;;;;;5055996;28;20145;-36
2022/01/10 08:59:43;;;;;;;10.38;5.70;;;17.10;35.00;;;;;;5055888;28;20024;-35
2022/01/10 09:02:10;;;;;;;8.05;5.72;;;17.30;35.10;;;;;;5038434;28;20017;-36
2022/01/10 09:04:35;;;;;;;7.93;6.05;;;17.40;34.70;;;;;;5055576;28;20024;-35
2022/01/10 09:07:02;;;;;;;8.63;6.10;;;17.40;34.40;;;;;;5039127;28;20017;-35
2022/01/10 09:09:28;;;;;;;11.18;5.47;;;17.50;34.50;;;;;;5038378;28;20027;-37
2022/01/10 09:11:54;;;;;;;12.00;6.00;;;17.50;34.20;;;;;;5038053;28;20115;-36
2022/01/10 09:14:21;;;;;;;12.48;5.60;;;17.50;34.00;;;;;;5038257;28;20077;-36
2022/01/10 09:16:47;;;;;;;17.60;6.65;;;17.50;33.90;;;;;;5019630;28;20074;-36
2022/01/10 09:19:13;;;;;;;11.00;6.03;;;17.50;33.70;;;;;;5037447;28;20013;-36
2022/01/10 09:21:40;;;;;;;13.73;5.63;;;17.50;33.80;;;;;;5058336;28;20013;-39
2022/01/10 09:24:08;;;;;;;11.07;6.10;;;17.50;33.50;;;;;;5060161;28;20013;-37
2022/01/10 09:26:35;;;;;;;8.90;5.50;;;17.50;33.50;;;;;;5042671;28;20039;-37
2022/01/10 09:29:01;;;;;;;10.00;5.50;;;17.50;33.50;;;;;;5041198;28;20079;-36
2022/01/10 09:31:28;;;;;;;12.05;5.82;;;17.60;33.40;;;;;;5061047;28;20021;-37
2022/01/10 09:33:55;;;;;;;10.75;5.57;;;17.60;33.20;;;;;;5060664;28;20459;-37
2022/01/10 09:36:23;;;;;;;12.18;5.80;;;17.60;33.10;;;;;;5060190;28;20018;-37
2022/01/10 09:38:49;;;;;;;9.27;5.32;;;17.60;33.20;;;;;;5060171;28;20097;-37
2022/01/10 09:41:15;;;;;;;10.13;5.78;;;17.70;33.00;;;;;;5058392;28;20025;-39
2022/01/10 09:44:01;;;;;;;10.50;6.05;;;17.70;32.90;;;;;;5058933;28;20018;-36
2022/01/10 09:46:27;;;;;;;10.00;6.40;;;17.70;32.80;;;;;;5055935;28;20017;-35
2022/01/10 09:48:53;;;;;;;8.93;6.03;;;17.70;32.70;;;;;;5037772;28;20047;-35
2022/01/10 09:51:20;;;;;;;8.43;5.60;;;17.60;32.70;;;;;;5037767;28;20025;-35
2022/01/10 09:53:45;;;;;;;8.93;5.90;;;17.50;32.80;;;;;;5037928;28;20017;-35
2022/01/10 09:56:11;;;;;;;7.85;5.50;;;17.60;32.80;;;;;;5056259;28;20057;-35
2022/01/10 09:58:37;;;;;;;8.52;6.05;;;17.60;32.80;;;;;;5055954;28;20075;-35
2022/01/10 10:01:03;;;;;;;7.13;5.82;;;17.60;32.70;;;;;;5054823;28;20079;-35
2022/01/10 10:03:29;;;;;;;8.40;6.03;;;17.60;32.70;;;;;;5055515;28;20017;-35
2022/01/10 10:05:56;;;;;;;10.25;6.00;;;17.60;32.70;;;;;;5055265;28;20017;-35
2022/01/10 10:08:26;;;;;;;7.70;6.00;;;17.60;32.60;;;;;;5054197;28;20021;-35
2022/01/10 10:10:52;;;;;;;7.43;5.67;;;17.60;32.60;;;;;;5053870;28;20013;-35
2022/01/10 10:13:18;;;;;;;7.78;5.53;;;17.60;32.40;;;;;;5037674;28;20443;-36
2022/01/10 10:15:45;;;;;;;8.32;5.85;;;17.60;32.50;;;;;;5054392;28;20414;-35
2022/01/10 10:18:17;;;;;;;8.55;5.65;;;17.50;32.40;;;;;;5054756;28;20013;-35
2022/01/10 10:20:43;;;;;;;8.95;5.90;;;17.60;32.40;;;;;;5054346;28;20067;-38
2022/01/10 10:23:13;;;;;;;8.18;5.60;;;17.60;32.40;;;;;;5054090;28;20467;-35
2022/01/10 10:25:47;;;;;;;;;;;17.50;32.40;;;;;;5054445;28;20048;-35
2022/01/10 10:28:13;;;;;;;7.40;5.50;;;17.50;32.40;;;;;;5035738;28;19980;-35
2022/01/10 10:30:39;;;;;;;7.50;5.60;;;17.50;32.60;;;;;;5054289;28;20036;-35
2022/01/10 10:33:19;;;;;;;7.75;5.50;;;17.60;32.60;;;;;;5054535;28;20013;-35
2022/01/10 10:35:54;;;;;;;7.45;5.30;;;17.60;33.10;;;;;;5037380;28;20025;-35
2022/01/10 10:38:22;;;;;;;7.18;5.40;;;17.60;32.60;;;;;;5053876;28;20027;-35
2022/01/10 10:40:50;;;;;;;7.13;4.97;;;17.50;32.60;;;;;;5053753;28;20491;-35
2022/01/10 10:43:16;;;;;;;7.30;4.90;;;17.50;32.60;;;;;;5053440;28;20057;-35
2022/01/10 10:45:43;;;;;;;6.57;4.65;;;17.60;32.70;;;;;;5036182;28;20036;-35
2022/01/10 10:48:10;;;;;;;6.18;4.90;;;17.60;32.60;;;;;;5053785;28;20009;-35
2022/01/10 10:50:41;;;;;;;7.22;4.93;;;17.60;32.70;;;;;;5036021;28;20103;-35
2022/01/10 10:53:09;;;;;;;6.25;5.03;;;17.60;32.60;;;;;;5034922;28;20020;-35
2022/01/10 10:55:38;;;;;;;8.05;5.10;;;17.60;32.60;;;;;;5053193;28;20064;-35
2022/01/10 10:58:06;;;;;;;5.93;4.40;;;17.60;32.50;;;;;;5035584;28;20021;-35
2022/01/10 11:00:32;;;;;;;6.28;4.97;;;17.60;32.50;;;;;;5037195;28;20092;-35
2022/01/10 11:02:58;;;;;;;6.35;4.60;;;17.60;32.60;;;;;;5054486;28;20209;-35
2022/01/10 11:05:24;;;;;;;6.80;4.30;;;17.60;32.60;;;;;;5036897;28;20031;-35
2022/01/10 11:07:49;;;;;;;6.70;4.60;;;17.70;32.60;;;;;;5036377;28;20029;-37
2022/01/10 11:10:15;;;;;;;9.50;4.32;;;17.60;32.90;;;;;;5054168;28;20059;-35
2022/01/10 11:12:41;;;;;;;9.07;4.97;;;17.50;34.00;;;;;;5054306;28;20041;-35
2022/01/10 11:15:08;;;;;;;11.35;4.57;;;17.50;33.90;;;;;;5054082;28;20021;-36
2022/01/10 11:17:34;;;;;;;7.75;4.43;;;17.60;33.80;;;;;;5035901;28;20024;-36
2022/01/10 11:20:11;;;;;;;9.25;4.60;;;17.70;33.60;;;;;;5037021;28;20029;-36
2022/01/10 11:22:41;;;;;;;7.70;4.45;;;17.70;33.40;;;;;;5053954;28;20017;-35
2022/01/10 11:25:20;;;;;;;10.27;4.83;;;17.70;33.50;;;;;;5053893;28;20013;-35
2022/01/10 11:27:46;;;;;;;10.80;4.78;;;17.70;33.40;;;;;;5053114;28;20263;-36
2022/01/10 11:30:32;;;;;;;8.85;4.22;;;17.70;33.50;;;;;;5052845;28;20021;-36
2022/01/10 11:33:03;;;;;;;6.88;4.57;;;17.80;33.40;;;;;;5053818;28;20056;-35
2022/01/10 11:35:31;;;;;;;10.32;4.97;;;17.80;33.30;;;;;;5052705;28;20024;-35
2022/01/10 11:37:57;;;;;;;5.82;4.50;;;17.80;33.40;;;;;;5035528;28;20108;-36
2022/01/10 11:40:23;;;;;;;8.73;5.05;;;17.90;33.50;;;;;;5053765;28;20053;-37
2022/01/10 11:42:58;;;;;;;9.30;5.00;;;17.90;33.70;;;;;;5036449;28;20028;-37
2022/01/10 11:45:25;;;;;;;9.05;5.18;;;17.90;33.20;;;;;;5052485;28;20086;-36
2022/01/10 11:48:10;;;;;;;14.07;5.97;;;17.80;33.70;;;;;;5051706;28;20051;-37
2022/01/10 11:50:37;;;;;;;18.15;6.35;;;17.60;34.20;;;;;;5052088;28;20035;-35
2022/01/10 11:53:03;;;;;;;16.67;6.32;;;17.70;35.70;;;;;;5018129;28;20023;-35
2022/01/10 11:55:32;;;;;;;12.60;6.18;;;17.90;35.80;;;;;;5052313;28;20037;-36
2022/01/10 11:58:06;;;;;;;20.55;6.10;;;18.20;35.50;;;;;;5034686;28;20479;-35
2022/01/10 12:00:36;;;;;;;14.50;6.00;;;18.40;35.50;;;;;;5052391;28;20036;-37
2022/01/10 12:03:02;;;;;;;14.77;5.40;;;18.70;35.60;;;;;;5034220;28;20016;-35
2022/01/10 12:05:27;;;;;;;14.00;5.57;;;18.80;35.90;;;;;;5033464;28;20452;-36
2022/01/10 12:07:54;;;;;;;13.60;5.90;;;18.90;35.80;;;;;;5051991;28;20013;-36
2022/01/10 12:10:20;;;;;;;17.17;5.60;;;19.00;36.10;;;;;;5051833;28;20029;-35
2022/01/10 12:12:50;;;;;;;10.75;6.13;;;19.10;36.00;;;;;;5034354;28;20037;-45
2022/01/10 12:15:16;;;;;;;19.05;6.70;;;19.10;35.70;;;;;;5034961;28;20033;-36
2022/01/10 12:17:42;;;;;;;13.00;6.35;;;19.10;36.00;;;;;;5017324;28;20021;-36
2022/01/10 12:20:09;;;;;;;15.60;7.18;;;19.10;36.10;;;;;;5034309;28;20036;-36
2022/01/10 12:22:34;;;;;;;14.32;6.43;;;19.10;36.10;;;;;;5033763;28;20432;-38
2022/01/10 12:25:01;;;;;;;10.50;6.10;;;19.00;36.40;;;;;;5052114;28;20059;-40
2022/01/10 12:27:27;;;;;;;15.02;6.85;;;19.10;36.50;;;;;;5051588;28;20017;-36
2022/01/10 12:29:54;;;;;;;22.23;8.15;;;19.10;36.30;;;;;;5034302;28;20020;-35
2022/01/10 12:32:20;;;;;;;12.68;6.88;;;19.10;36.60;;;;;;5051938;28;20100;-35
2022/01/10 12:34:46;;;;;;;11.88;6.95;;;19.10;36.70;;;;;;5051469;28;20075;-35
2022/01/10 12:37:12;;;;;;;12.15;6.80;;;19.10;36.80;;;;;;5051000;28;20079;-35
2022/01/10 12:39:39;;;;;;;15.30;7.35;;;19.10;36.90;;;;;;5033220;28;20349;-35
2022/01/10 12:42:05;;;;;;;13.85;6.70;;;19.10;36.90;;;;;;5033437;28;20036;-37
2022/01/10 12:44:31;;;;;;;15.07;6.78;;;19.10;36.70;;;;;;5052036;28;20039;-38
2022/01/10 12:46:57;;;;;;;18.90;6.65;;;19.10;36.80;;;;;;5052314;28;20476;-34
2022/01/10 12:49:23;;;;;;;19.20;6.75;;;19.20;37.00;;;;;;5052036;28;20551;-35
2022/01/10 12:51:53;;;;;;;19.25;7.18;;;19.20;36.20;;;;;;5033800;28;20107;-34
2022/01/10 12:54:48;;;;;;;17.00;6.97;;;19.20;35.90;;;;;;5018003;28;20009;-35
2022/01/10 12:57:30;;;;;;;17.75;7.50;;;19.20;35.70;;;;;;5049612;28;20040;-33